sensor_id;sensor_type;location;lat;lon;timestamp;P1;durP1;ratioP1;P2;durP2;ratioP2
35971;SDS011;22052;0.000;0.000;2023-06-26T00:01:35;1.60;;;1.50;;
35971;SDS011;22052;0.000;0.000;2023-06-26T00:04:01;1.60;;;1.50;;
35971;SDS011;22052;0.000;0.000;2023-06-26T00:06:27;1.80;;;1.67;;
35971;SDS011;22052;0.000;0.000;2023-06-26T00:08:54;1.70;;;1.58;;
35971;SDS011;22052;0.000;0.000;2023-06-26T00:11:21;1.70;;;1.60;;
35971;SDS011;22052;0.000;0.000;2023-06-26T00:13:47;1.95;;;1.63;;
35971;SDS011;22052;0.000;0.000;2023-06-26T00:16:13;1.90;;;1.70;;
35971;SDS011;22052;0.000;0.000;2023-06-26T00:18:39;2.00;;;1.70;;
35971;SDS011;22052;0.000;0.000;2023-06-26T00:21:05;1.90;;;1.65;;
35971;SDS011;22052;0.000;0.000;2023-06-26T00:23:32;1.50;;;1.40;;
35971;SDS011;22052;0.000;0.000;2023-06-26T00:26:02;1.70;;;1.60;;
35971;SDS011;22052;0.000;0.000;2023-06-26T00:28:28;1.95;;;1.70;;
35971;SDS011;22052;0.000;0.000;2023-06-26T00:30:54;1.55;;;1.45;;
35971;SDS011;22052;0.000;0.000;2023-06-26T00:33:20;2.00;;;1.75;;
35971;SDS011;22052;0.000;0.000;2023-06-26T00:35:47;2.00;;;1.73;;
35971;SDS011;22052;0.000;0.000;2023-06-26T00:38:13;1.90;;;1.60;;
35971;SDS011;22052;0.000;0.000;2023-06-26T00:40:39;2.00;;;1.67;;
35971;SDS011;22052;0.000;0.000;2023-06-26T00:43:05;1.80;;;1.55;;
35971;SDS011;22052;0.000;0.000;2023-06-26T00:45:31;1.77;;;1.55;;
35971;SDS011;22052;0.000;0.000;2023-06-26T00:47:57;2.13;;;1.80;;
35971;SDS011;22052;0.000;0.000;2023-06-26T00:50:23;1.77;;;1.58;;
35971;SDS011;22052;0.000;0.000;2023-06-26T00:52:49;2.08;;;1.88;;
35971;SDS011;22052;0.000;0.000;2023-06-26T00:55:16;1.90;;;1.63;;
35971;SDS011;22052;0.000;0.000;2023-06-26T00:57:42;2.45;;;1.80;;
35971;SDS011;22052;0.000;0.000;2023-06-26T01:00:10;1.48;;;1.38;;
35971;SDS011;22052;0.000;0.000;2023-06-26T01:02:37;2.10;;;1.75;;
35971;SDS011;22052;0.000;0.000;2023-06-26T01:05:04;2.13;;;1.60;;
35971;SDS011;22052;0.000;0.000;2023-06-26T01:07:32;1.85;;;1.55;;
35971;SDS011;22052;0.000;0.000;2023-06-26T01:10:01;1.60;;;1.50;;
35971;SDS011;22052;0.000;0.000;2023-06-26T01:12:27;2.20;;;1.70;;
35971;SDS011;22052;0.000;0.000;2023-06-26T01:14:53;1.55;;;1.45;;
35971;SDS011;22052;0.000;0.000;2023-06-26T01:17:19;1.73;;;1.50;;
35971;SDS011;22052;0.000;0.000;2023-06-26T01:19:46;1.90;;;1.65;;
35971;SDS011;22052;0.000;0.000;2023-06-26T01:22:23;2.17;;;1.90;;
35971;SDS011;22052;0.000;0.000;2023-06-26T01:25:13;1.88;;;1.52;;
35971;SDS011;22052;0.000;0.000;2023-06-26T01:27:38;1.67;;;1.50;;
35971;SDS011;22052;0.000;0.000;2023-06-26T01:30:05;1.67;;;1.52;;
35971;SDS011;22052;0.000;0.000;2023-06-26T01:32:31;1.52;;;1.30;;
35971;SDS011;22052;0.000;0.000;2023-06-26T01:34:59;1.27;;;1.17;;
35971;SDS011;22052;0.000;0.000;2023-06-26T01:37:25;1.40;;;1.30;;
35971;SDS011;22052;0.000;0.000;2023-06-26T01:39:51;1.40;;;1.30;;
35971;SDS011;22052;0.000;0.000;2023-06-26T01:42:17;1.50;;;1.30;;
35971;SDS011;22052;0.000;0.000;2023-06-26T01:44:44;1.52;;;1.10;;
35971;SDS011;22052;0.000;0.000;2023-06-26T01:47:11;1.30;;;1.20;;
35971;SDS011;22052;0.000;0.000;2023-06-26T01:54:55;1.30;;;1.20;;
35971;SDS011;22052;0.000;0.000;2023-06-26T01:57:22;1.55;;;1.38;;
35971;SDS011;22052;0.000;0.000;2023-06-26T01:59:48;1.50;;;1.30;;
35971;SDS011;22052;0.000;0.000;2023-06-26T02:02:16;1.45;;;1.35;;
35971;SDS011;22052;0.000;0.000;2023-06-26T02:04:42;1.35;;;1.25;;
35971;SDS011;22052;0.000;0.000;2023-06-26T02:07:08;1.38;;;1.25;;
35971;SDS011;22052;0.000;0.000;2023-06-26T02:09:34;1.70;;;1.40;;
35971;SDS011;22052;0.000;0.000;2023-06-26T02:12:01;1.63;;;1.40;;
35971;SDS011;22052;0.000;0.000;2023-06-26T02:14:27;1.52;;;1.30;;
35971;SDS011;22052;0.000;0.000;2023-06-26T02:16:53;1.40;;;1.27;;
35971;SDS011;22052;0.000;0.000;2023-06-26T02:19:19;1.40;;;1.20;;
35971;SDS011;22052;0.000;0.000;2023-06-26T02:21:49;1.70;;;1.50;;
35971;SDS011;22052;0.000;0.000;2023-06-26T02:24:15;1.50;;;1.40;;
35971;SDS011;22052;0.000;0.000;2023-06-26T02:26:41;1.42;;;1.13;;
35971;SDS011;22052;0.000;0.000;2023-06-26T02:29:07;1.65;;;1.40;;
35971;SDS011;22052;0.000;0.000;2023-06-26T02:31:34;1.38;;;1.27;;
35971;SDS011;22052;0.000;0.000;2023-06-26T02:34:00;1.50;;;1.38;;
35971;SDS011;22052;0.000;0.000;2023-06-26T02:36:26;1.55;;;1.38;;
35971;SDS011;22052;0.000;0.000;2023-06-26T02:38:52;1.40;;;1.25;;
35971;SDS011;22052;0.000;0.000;2023-06-26T02:41:18;1.27;;;1.10;;
35971;SDS011;22052;0.000;0.000;2023-06-26T02:43:44;1.40;;;1.30;;
35971;SDS011;22052;0.000;0.000;2023-06-26T02:46:10;1.40;;;1.30;;
35971;SDS011;22052;0.000;0.000;2023-06-26T02:48:36;1.98;;;1.50;;
35971;SDS011;22052;0.000;0.000;2023-06-26T02:51:02;1.15;;;1.05;;
35971;SDS011;22052;0.000;0.000;2023-06-26T02:53:28;1.45;;;1.25;;
35971;SDS011;22052;0.000;0.000;2023-06-26T02:55:54;1.50;;;1.40;;
35971;SDS011;22052;0.000;0.000;2023-06-26T02:58:21;1.50;;;1.33;;
35971;SDS011;22052;0.000;0.000;2023-06-26T03:00:47;1.30;;;1.20;;
35971;SDS011;22052;0.000;0.000;2023-06-26T03:03:13;1.45;;;1.23;;
35971;SDS011;22052;0.000;0.000;2023-06-26T03:05:39;1.60;;;1.30;;
35971;SDS011;22052;0.000;0.000;2023-06-26T03:08:05;1.52;;;1.25;;
35971;SDS011;22052;0.000;0.000;2023-06-26T03:10:31;1.63;;;1.40;;
35971;SDS011;22052;0.000;0.000;2023-06-26T03:12:57;1.65;;;1.25;;
35971;SDS011;22052;0.000;0.000;2023-06-26T03:15:23;1.50;;;1.33;;
35971;SDS011;22052;0.000;0.000;2023-06-26T03:17:50;1.38;;;1.13;;
35971;SDS011;22052;0.000;0.000;2023-06-26T03:20:16;1.48;;;1.30;;
35971;SDS011;22052;0.000;0.000;2023-06-26T03:22:42;1.98;;;1.20;;
35971;SDS011;22052;0.000;0.000;2023-06-26T03:25:08;1.70;;;1.35;;
35971;SDS011;22052;0.000;0.000;2023-06-26T03:27:34;1.50;;;1.27;;
35971;SDS011;22052;0.000;0.000;2023-06-26T03:30:00;2.15;;;1.50;;
35971;SDS011;22052;0.000;0.000;2023-06-26T03:32:27;3.00;;;1.75;;
35971;SDS011;22052;0.000;0.000;2023-06-26T03:34:53;4.68;;;2.08;;
35971;SDS011;22052;0.000;0.000;2023-06-26T03:37:19;4.35;;;2.00;;
35971;SDS011;22052;0.000;0.000;2023-06-26T03:39:45;8.38;;;2.55;;
35971;SDS011;22052;0.000;0.000;2023-06-26T03:42:11;8.35;;;2.08;;
35971;SDS011;22052;0.000;0.000;2023-06-26T03:44:37;4.20;;;1.92;;
35971;SDS011;22052;0.000;0.000;2023-06-26T03:47:03;5.78;;;2.35;;
35971;SDS011;22052;0.000;0.000;2023-06-26T03:49:29;5.97;;;2.20;;
35971;SDS011;22052;0.000;0.000;2023-06-26T03:51:56;4.63;;;2.10;;
35971;SDS011;22052;0.000;0.000;2023-06-26T03:54:22;4.50;;;1.98;;
35971;SDS011;22052;0.000;0.000;2023-06-26T03:56:48;4.03;;;1.67;;
35971;SDS011;22052;0.000;0.000;2023-06-26T03:59:14;3.05;;;1.75;;
35971;SDS011;22052;0.000;0.000;2023-06-26T04:04:16;3.75;;;1.83;;
35971;SDS011;22052;0.000;0.000;2023-06-26T04:06:42;5.55;;;1.70;;
35971;SDS011;22052;0.000;0.000;2023-06-26T04:09:08;5.35;;;1.98;;
35971;SDS011;22052;0.000;0.000;2023-06-26T04:11:34;2.95;;;1.95;;
35971;SDS011;22052;0.000;0.000;2023-06-26T04:14:00;3.20;;;1.95;;
35971;SDS011;22052;0.000;0.000;2023-06-26T04:16:27;3.60;;;1.80;;
35971;SDS011;22052;0.000;0.000;2023-06-26T04:18:53;3.00;;;1.63;;
35971;SDS011;22052;0.000;0.000;2023-06-26T04:21:21;2.40;;;1.75;;
35971;SDS011;22052;0.000;0.000;2023-06-26T04:23:50;3.70;;;1.80;;
35971;SDS011;22052;0.000;0.000;2023-06-26T04:26:16;3.33;;;1.63;;
35971;SDS011;22052;0.000;0.000;2023-06-26T04:28:42;3.45;;;1.92;;
35971;SDS011;22052;0.000;0.000;2023-06-26T04:31:08;2.95;;;1.63;;
35971;SDS011;22052;0.000;0.000;2023-06-26T04:33:35;2.60;;;2.00;;
35971;SDS011;22052;0.000;0.000;2023-06-26T04:36:02;3.28;;;1.85;;
35971;SDS011;22052;0.000;0.000;2023-06-26T04:38:28;2.22;;;1.52;;
35971;SDS011;22052;0.000;0.000;2023-06-26T04:40:55;3.22;;;1.80;;
35971;SDS011;22052;0.000;0.000;2023-06-26T04:43:21;5.75;;;1.77;;
35971;SDS011;22052;0.000;0.000;2023-06-26T04:45:47;3.60;;;1.92;;
35971;SDS011;22052;0.000;0.000;2023-06-26T04:48:13;4.03;;;1.70;;
35971;SDS011;22052;0.000;0.000;2023-06-26T04:50:39;4.55;;;1.90;;
35971;SDS011;22052;0.000;0.000;2023-06-26T04:53:05;2.90;;;1.60;;
35971;SDS011;22052;0.000;0.000;2023-06-26T04:55:32;4.05;;;1.83;;
35971;SDS011;22052;0.000;0.000;2023-06-26T04:57:58;3.22;;;1.52;;
35971;SDS011;22052;0.000;0.000;2023-06-26T05:00:24;3.75;;;1.70;;
35971;SDS011;22052;0.000;0.000;2023-06-26T05:02:50;3.92;;;1.80;;
35971;SDS011;22052;0.000;0.000;2023-06-26T05:05:28;4.32;;;1.73;;
35971;SDS011;22052;0.000;0.000;2023-06-26T05:07:55;4.25;;;2.13;;
35971;SDS011;22052;0.000;0.000;2023-06-26T05:10:21;5.45;;;2.00;;
35971;SDS011;22052;0.000;0.000;2023-06-26T05:12:48;6.88;;;1.70;;
35971;SDS011;22052;0.000;0.000;2023-06-26T05:15:14;6.30;;;1.92;;
35971;SDS011;22052;0.000;0.000;2023-06-26T05:17:40;3.25;;;1.80;;
35971;SDS011;22052;0.000;0.000;2023-06-26T05:20:06;5.97;;;1.90;;
35971;SDS011;22052;0.000;0.000;2023-06-26T05:22:33;2.60;;;1.60;;
35971;SDS011;22052;0.000;0.000;2023-06-26T05:25:00;7.15;;;2.00;;
35971;SDS011;22052;0.000;0.000;2023-06-26T05:27:27;3.55;;;1.80;;
35971;SDS011;22052;0.000;0.000;2023-06-26T05:29:53;6.95;;;1.98;;
35971;SDS011;22052;0.000;0.000;2023-06-26T05:32:19;3.88;;;1.63;;
35971;SDS011;22052;0.000;0.000;2023-06-26T05:34:46;5.10;;;2.05;;
35971;SDS011;22052;0.000;0.000;2023-06-26T05:37:18;4.78;;;1.80;;
35971;SDS011;22052;0.000;0.000;2023-06-26T05:39:45;4.32;;;1.92;;
35971;SDS011;22052;0.000;0.000;2023-06-26T05:42:12;5.38;;;1.80;;
35971;SDS011;22052;0.000;0.000;2023-06-26T05:44:38;5.85;;;1.80;;
35971;SDS011;22052;0.000;0.000;2023-06-26T05:47:04;6.88;;;1.80;;
35971;SDS011;22052;0.000;0.000;2023-06-26T05:49:30;6.28;;;1.63;;
35971;SDS011;22052;0.000;0.000;2023-06-26T05:51:57;5.60;;;1.83;;
35971;SDS011;22052;0.000;0.000;2023-06-26T05:54:23;4.00;;;1.60;;
35971;SDS011;22052;0.000;0.000;2023-06-26T05:56:51;5.50;;;1.67;;
35971;SDS011;22052;0.000;0.000;2023-06-26T05:59:19;8.65;;;1.92;;
35971;SDS011;22052;0.000;0.000;2023-06-26T06:01:45;3.20;;;1.40;;
35971;SDS011;22052;0.000;0.000;2023-06-26T06:04:11;4.30;;;1.77;;
35971;SDS011;22052;0.000;0.000;2023-06-26T06:06:37;10.02;;;1.83;;
35971;SDS011;22052;0.000;0.000;2023-06-26T06:09:03;3.72;;;1.88;;
35971;SDS011;22052;0.000;0.000;2023-06-26T06:11:29;3.75;;;1.70;;
35971;SDS011;22052;0.000;0.000;2023-06-26T06:13:55;4.05;;;1.50;;
35971;SDS011;22052;0.000;0.000;2023-06-26T06:16:24;7.95;;;1.80;;
35971;SDS011;22052;0.000;0.000;2023-06-26T06:18:50;3.95;;;1.70;;
35971;SDS011;22052;0.000;0.000;2023-06-26T06:21:16;9.13;;;1.83;;
35971;SDS011;22052;0.000;0.000;2023-06-26T06:23:42;6.55;;;2.00;;
35971;SDS011;22052;0.000;0.000;2023-06-26T06:26:08;4.78;;;1.63;;
35971;SDS011;22052;0.000;0.000;2023-06-26T06:28:34;5.28;;;1.58;;
35971;SDS011;22052;0.000;0.000;2023-06-26T06:31:00;6.40;;;1.70;;
35971;SDS011;22052;0.000;0.000;2023-06-26T06:33:27;4.20;;;1.60;;
35971;SDS011;22052;0.000;0.000;2023-06-26T06:35:53;7.60;;;1.83;;
35971;SDS011;22052;0.000;0.000;2023-06-26T06:38:19;4.88;;;1.63;;
35971;SDS011;22052;0.000;0.000;2023-06-26T06:40:45;4.80;;;1.75;;
35971;SDS011;22052;0.000;0.000;2023-06-26T06:43:11;4.22;;;1.70;;
35971;SDS011;22052;0.000;0.000;2023-06-26T06:45:37;2.78;;;1.50;;
35971;SDS011;22052;0.000;0.000;2023-06-26T06:48:04;7.40;;;1.70;;
35971;SDS011;22052;0.000;0.000;2023-06-26T06:50:30;4.50;;;1.70;;
35971;SDS011;22052;0.000;0.000;2023-06-26T06:52:56;4.43;;;1.77;;
35971;SDS011;22052;0.000;0.000;2023-06-26T06:55:23;3.08;;;1.67;;
35971;SDS011;22052;0.000;0.000;2023-06-26T06:57:51;5.22;;;1.70;;
35971;SDS011;22052;0.000;0.000;2023-06-26T07:00:17;4.85;;;1.60;;
35971;SDS011;22052;0.000;0.000;2023-06-26T07:02:44;5.60;;;1.60;;
35971;SDS011;22052;0.000;0.000;2023-06-26T07:05:11;2.67;;;1.50;;
35971;SDS011;22052;0.000;0.000;2023-06-26T07:07:38;6.75;;;1.73;;
35971;SDS011;22052;0.000;0.000;2023-06-26T07:10:11;2.88;;;1.50;;
35971;SDS011;22052;0.000;0.000;2023-06-26T07:12:38;5.13;;;1.60;;
35971;SDS011;22052;0.000;0.000;2023-06-26T07:15:04;4.25;;;1.60;;
35971;SDS011;22052;0.000;0.000;2023-06-26T07:17:34;3.78;;;1.60;;
35971;SDS011;22052;0.000;0.000;2023-06-26T07:20:00;5.22;;;1.60;;
35971;SDS011;22052;0.000;0.000;2023-06-26T07:22:30;3.72;;;1.75;;
35971;SDS011;22052;0.000;0.000;2023-06-26T07:24:56;6.57;;;1.73;;
35971;SDS011;22052;0.000;0.000;2023-06-26T07:27:22;4.97;;;1.55;;
35971;SDS011;22052;0.000;0.000;2023-06-26T07:29:48;5.93;;;1.90;;
35971;SDS011;22052;0.000;0.000;2023-06-26T07:32:14;4.65;;;1.52;;
35971;SDS011;22052;0.000;0.000;2023-06-26T07:34:41;5.03;;;1.83;;
35971;SDS011;22052;0.000;0.000;2023-06-26T07:37:07;4.53;;;1.65;;
35971;SDS011;22052;0.000;0.000;2023-06-26T07:39:33;6.50;;;1.92;;
35971;SDS011;22052;0.000;0.000;2023-06-26T07:41:59;7.45;;;1.90;;
35971;SDS011;22052;0.000;0.000;2023-06-26T07:44:25;4.20;;;1.73;;
35971;SDS011;22052;0.000;0.000;2023-06-26T07:46:51;5.25;;;1.52;;
35971;SDS011;22052;0.000;0.000;2023-06-26T07:49:18;4.55;;;1.67;;
35971;SDS011;22052;0.000;0.000;2023-06-26T07:51:44;4.03;;;1.70;;
35971;SDS011;22052;0.000;0.000;2023-06-26T07:54:10;3.67;;;1.70;;
35971;SDS011;22052;0.000;0.000;2023-06-26T07:56:55;7.63;;;1.75;;
35971;SDS011;22052;0.000;0.000;2023-06-26T07:59:22;3.92;;;1.58;;
35971;SDS011;22052;0.000;0.000;2023-06-26T08:01:48;4.35;;;1.70;;
35971;SDS011;22052;0.000;0.000;2023-06-26T08:04:14;6.03;;;1.42;;
35971;SDS011;22052;0.000;0.000;2023-06-26T08:06:41;4.40;;;1.80;;
35971;SDS011;22052;0.000;0.000;2023-06-26T08:09:07;6.07;;;1.60;;
35971;SDS011;22052;0.000;0.000;2023-06-26T08:11:33;6.50;;;1.90;;
35971;SDS011;22052;0.000;0.000;2023-06-26T08:13:59;6.25;;;1.75;;
35971;SDS011;22052;0.000;0.000;2023-06-26T08:16:26;5.68;;;1.48;;
35971;SDS011;22052;0.000;0.000;2023-06-26T08:18:52;6.13;;;1.58;;
35971;SDS011;22052;0.000;0.000;2023-06-26T08:21:18;4.90;;;1.80;;
35971;SDS011;22052;0.000;0.000;2023-06-26T08:23:44;4.25;;;1.65;;
35971;SDS011;22052;0.000;0.000;2023-06-26T08:26:10;6.30;;;1.75;;
35971;SDS011;22052;0.000;0.000;2023-06-26T08:28:36;7.15;;;1.95;;
35971;SDS011;22052;0.000;0.000;2023-06-26T08:31:02;3.42;;;1.48;;
35971;SDS011;22052;0.000;0.000;2023-06-26T08:33:28;6.47;;;1.88;;
35971;SDS011;22052;0.000;0.000;2023-06-26T08:35:55;6.18;;;1.70;;
35971;SDS011;22052;0.000;0.000;2023-06-26T08:38:21;4.00;;;1.60;;
35971;SDS011;22052;0.000;0.000;2023-06-26T08:40:47;5.03;;;1.65;;
35971;SDS011;22052;0.000;0.000;2023-06-26T08:43:14;4.38;;;1.70;;
35971;SDS011;22052;0.000;0.000;2023-06-26T08:45:40;4.40;;;1.60;;
35971;SDS011;22052;0.000;0.000;2023-06-26T08:48:09;3.83;;;1.77;;
35971;SDS011;22052;0.000;0.000;2023-06-26T08:50:36;4.07;;;1.80;;
35971;SDS011;22052;0.000;0.000;2023-06-26T08:53:04;5.85;;;1.98;;
35971;SDS011;22052;0.000;0.000;2023-06-26T08:55:35;4.82;;;1.95;;
35971;SDS011;22052;0.000;0.000;2023-06-26T08:58:02;4.82;;;1.90;;
35971;SDS011;22052;0.000;0.000;2023-06-26T09:00:29;3.50;;;1.70;;
35971;SDS011;22052;0.000;0.000;2023-06-26T09:02:57;4.63;;;1.63;;
35971;SDS011;22052;0.000;0.000;2023-06-26T09:05:25;6.15;;;1.90;;
35971;SDS011;22052;0.000;0.000;2023-06-26T09:07:52;6.03;;;1.98;;
35971;SDS011;22052;0.000;0.000;2023-06-26T09:10:21;5.68;;;1.88;;
35971;SDS011;22052;0.000;0.000;2023-06-26T09:12:47;5.15;;;1.90;;
35971;SDS011;22052;0.000;0.000;2023-06-26T09:15:14;4.65;;;1.77;;
35971;SDS011;22052;0.000;0.000;2023-06-26T09:17:40;8.80;;;1.80;;
35971;SDS011;22052;0.000;0.000;2023-06-26T09:20:08;4.72;;;1.77;;
35971;SDS011;22052;0.000;0.000;2023-06-26T09:22:40;6.30;;;1.90;;
35971;SDS011;22052;0.000;0.000;2023-06-26T09:25:06;4.18;;;1.85;;
35971;SDS011;22052;0.000;0.000;2023-06-26T09:27:33;3.72;;;1.63;;
35971;SDS011;22052;0.000;0.000;2023-06-26T09:30:00;5.03;;;1.70;;
35971;SDS011;22052;0.000;0.000;2023-06-26T09:32:27;8.48;;;2.38;;
35971;SDS011;22052;0.000;0.000;2023-06-26T09:34:53;4.93;;;2.25;;
35971;SDS011;22052;0.000;0.000;2023-06-26T09:37:25;10.35;;;1.92;;
35971;SDS011;22052;0.000;0.000;2023-06-26T09:39:52;3.65;;;1.60;;
35971;SDS011;22052;0.000;0.000;2023-06-26T09:42:18;5.47;;;1.80;;
35971;SDS011;22052;0.000;0.000;2023-06-26T09:44:45;6.63;;;1.70;;
35971;SDS011;22052;0.000;0.000;2023-06-26T09:47:12;7.80;;;2.10;;
35971;SDS011;22052;0.000;0.000;2023-06-26T09:49:41;6.50;;;2.15;;
35971;SDS011;22052;0.000;0.000;2023-06-26T09:52:08;4.32;;;1.80;;
35971;SDS011;22052;0.000;0.000;2023-06-26T09:54:34;7.05;;;1.85;;
35971;SDS011;22052;0.000;0.000;2023-06-26T09:57:08;3.80;;;1.85;;
35971;SDS011;22052;0.000;0.000;2023-06-26T09:59:34;6.75;;;2.00;;
35971;SDS011;22052;0.000;0.000;2023-06-26T10:02:00;5.45;;;1.80;;
35971;SDS011;22052;0.000;0.000;2023-06-26T10:04:27;4.30;;;1.67;;
35971;SDS011;22052;0.000;0.000;2023-06-26T10:06:56;5.47;;;1.90;;
35971;SDS011;22052;0.000;0.000;2023-06-26T10:09:22;5.70;;;1.80;;
35971;SDS011;22052;0.000;0.000;2023-06-26T10:12:02;4.10;;;1.75;;
35971;SDS011;22052;0.000;0.000;2023-06-26T10:16:59;8.18;;;1.95;;
35971;SDS011;22052;0.000;0.000;2023-06-26T10:19:26;5.22;;;2.15;;
35971;SDS011;22052;0.000;0.000;2023-06-26T10:21:53;4.85;;;2.00;;
35971;SDS011;22052;0.000;0.000;2023-06-26T10:24:23;6.40;;;1.77;;
35971;SDS011;22052;0.000;0.000;2023-06-26T10:26:50;4.72;;;2.00;;
35971;SDS011;22052;0.000;0.000;2023-06-26T10:29:18;6.53;;;2.20;;
35971;SDS011;22052;0.000;0.000;2023-06-26T10:31:48;3.53;;;1.85;;
35971;SDS011;22052;0.000;0.000;2023-06-26T10:34:15;4.28;;;1.95;;
35971;SDS011;22052;0.000;0.000;2023-06-26T10:36:41;3.80;;;1.58;;
35971;SDS011;22052;0.000;0.000;2023-06-26T10:39:07;4.07;;;1.73;;
35971;SDS011;22052;0.000;0.000;2023-06-26T10:41:40;5.55;;;1.85;;
35971;SDS011;22052;0.000;0.000;2023-06-26T10:49:18;5.20;;;1.90;;
35971;SDS011;22052;0.000;0.000;2023-06-26T10:51:45;5.15;;;1.83;;
35971;SDS011;22052;0.000;0.000;2023-06-26T10:54:14;4.38;;;1.90;;
35971;SDS011;22052;0.000;0.000;2023-06-26T10:56:42;7.10;;;2.13;;
35971;SDS011;22052;0.000;0.000;2023-06-26T10:59:18;5.45;;;2.28;;
35971;SDS011;22052;0.000;0.000;2023-06-26T11:01:45;11.55;;;2.45;;
35971;SDS011;22052;0.000;0.000;2023-06-26T11:04:13;6.90;;;2.13;;
35971;SDS011;22052;0.000;0.000;2023-06-26T11:06:44;5.60;;;2.10;;
35971;SDS011;22052;0.000;0.000;2023-06-26T11:09:14;5.15;;;2.00;;
35971;SDS011;22052;0.000;0.000;2023-06-26T11:14:20;4.38;;;1.83;;
35971;SDS011;22052;0.000;0.000;2023-06-26T11:16:46;5.97;;;1.80;;
35971;SDS011;22052;0.000;0.000;2023-06-26T11:19:14;5.53;;;2.35;;
35971;SDS011;22052;0.000;0.000;2023-06-26T11:21:40;6.00;;;2.00;;
35971;SDS011;22052;0.000;0.000;2023-06-26T11:24:06;7.05;;;1.85;;
35971;SDS011;22052;0.000;0.000;2023-06-26T11:26:39;4.43;;;1.90;;
35971;SDS011;22052;0.000;0.000;2023-06-26T11:29:05;3.33;;;1.88;;
35971;SDS011;22052;0.000;0.000;2023-06-26T11:31:32;5.35;;;2.20;;
35971;SDS011;22052;0.000;0.000;2023-06-26T11:34:00;6.88;;;1.90;;
35971;SDS011;22052;0.000;0.000;2023-06-26T11:36:27;6.82;;;2.13;;
35971;SDS011;22052;0.000;0.000;2023-06-26T11:38:56;10.40;;;2.15;;
35971;SDS011;22052;0.000;0.000;2023-06-26T11:41:26;5.13;;;1.80;;
35971;SDS011;22052;0.000;0.000;2023-06-26T11:43:53;7.07;;;2.30;;
35971;SDS011;22052;0.000;0.000;2023-06-26T11:46:20;4.20;;;2.13;;
35971;SDS011;22052;0.000;0.000;2023-06-26T11:48:46;5.00;;;2.05;;
35971;SDS011;22052;0.000;0.000;2023-06-26T11:51:13;5.68;;;2.15;;
35971;SDS011;22052;0.000;0.000;2023-06-26T11:53:42;7.10;;;2.10;;
35971;SDS011;22052;0.000;0.000;2023-06-26T11:56:12;7.30;;;1.98;;
35971;SDS011;22052;0.000;0.000;2023-06-26T12:01:36;3.53;;;1.92;;
35971;SDS011;22052;0.000;0.000;2023-06-26T12:04:03;8.68;;;2.00;;
35971;SDS011;22052;0.000;0.000;2023-06-26T12:06:31;8.77;;;2.03;;
35971;SDS011;22052;0.000;0.000;2023-06-26T12:09:00;5.70;;;2.03;;
35971;SDS011;22052;0.000;0.000;2023-06-26T12:11:28;4.63;;;2.25;;
35971;SDS011;22052;0.000;0.000;2023-06-26T12:13:55;6.82;;;2.00;;
35971;SDS011;22052;0.000;0.000;2023-06-26T12:16:21;6.70;;;2.00;;
35971;SDS011;22052;0.000;0.000;2023-06-26T12:18:48;7.00;;;2.10;;
35971;SDS011;22052;0.000;0.000;2023-06-26T12:23:59;6.32;;;2.17;;
35971;SDS011;22052;0.000;0.000;2023-06-26T12:26:26;5.95;;;1.80;;
35971;SDS011;22052;0.000;0.000;2023-06-26T12:28:53;9.50;;;2.22;;
35971;SDS011;22052;0.000;0.000;2023-06-26T12:31:20;8.45;;;1.88;;
35971;SDS011;22052;0.000;0.000;2023-06-26T12:33:47;4.35;;;2.00;;
35971;SDS011;22052;0.000;0.000;2023-06-26T12:36:13;8.60;;;2.17;;
35971;SDS011;22052;0.000;0.000;2023-06-26T12:38:44;8.95;;;2.47;;
35971;SDS011;22052;0.000;0.000;2023-06-26T12:41:14;6.35;;;1.90;;
35971;SDS011;22052;0.000;0.000;2023-06-26T12:43:42;6.22;;;2.20;;
35971;SDS011;22052;0.000;0.000;2023-06-26T12:46:08;10.38;;;2.20;;
35971;SDS011;22052;0.000;0.000;2023-06-26T12:48:44;5.60;;;2.25;;
35971;SDS011;22052;0.000;0.000;2023-06-26T12:51:14;7.40;;;1.98;;
35971;SDS011;22052;0.000;0.000;2023-06-26T12:53:41;9.15;;;2.13;;
35971;SDS011;22052;0.000;0.000;2023-06-26T12:56:07;7.82;;;2.13;;
35971;SDS011;22052;0.000;0.000;2023-06-26T12:58:34;6.20;;;2.13;;
35971;SDS011;22052;0.000;0.000;2023-06-26T13:01:04;3.50;;;1.83;;
35971;SDS011;22052;0.000;0.000;2023-06-26T13:03:30;7.90;;;2.30;;
35971;SDS011;22052;0.000;0.000;2023-06-26T13:05:56;10.10;;;2.60;;
35971;SDS011;22052;0.000;0.000;2023-06-26T13:08:23;7.28;;;2.00;;
35971;SDS011;22052;0.000;0.000;2023-06-26T13:10:49;10.30;;;2.22;;
35971;SDS011;22052;0.000;0.000;2023-06-26T13:13:15;7.20;;;2.35;;
35971;SDS011;22052;0.000;0.000;2023-06-26T13:15:41;6.03;;;2.15;;
35971;SDS011;22052;0.000;0.000;2023-06-26T13:18:07;9.82;;;2.97;;
35971;SDS011;22052;0.000;0.000;2023-06-26T13:20:33;8.55;;;2.38;;
35971;SDS011;22052;0.000;0.000;2023-06-26T13:22:59;5.25;;;1.90;;
35971;SDS011;22052;0.000;0.000;2023-06-26T13:25:25;7.97;;;2.25;;
35971;SDS011;22052;0.000;0.000;2023-06-26T13:27:51;7.63;;;1.95;;
35971;SDS011;22052;0.000;0.000;2023-06-26T13:30:18;8.65;;;2.30;;
35971;SDS011;22052;0.000;0.000;2023-06-26T13:32:44;7.95;;;2.03;;
35971;SDS011;22052;0.000;0.000;2023-06-26T13:35:11;9.45;;;2.08;;
35971;SDS011;22052;0.000;0.000;2023-06-26T13:37:37;7.63;;;2.35;;
35971;SDS011;22052;0.000;0.000;2023-06-26T13:40:03;7.55;;;2.30;;
35971;SDS011;22052;0.000;0.000;2023-06-26T13:42:31;6.40;;;2.08;;
35971;SDS011;22052;0.000;0.000;2023-06-26T13:44:58;5.95;;;1.90;;
35971;SDS011;22052;0.000;0.000;2023-06-26T13:47:24;7.97;;;2.22;;
35971;SDS011;22052;0.000;0.000;2023-06-26T13:49:50;6.85;;;2.25;;
35971;SDS011;22052;0.000;0.000;2023-06-26T13:52:16;7.13;;;2.35;;
35971;SDS011;22052;0.000;0.000;2023-06-26T13:54:42;8.68;;;2.15;;
35971;SDS011;22052;0.000;0.000;2023-06-26T13:57:09;8.50;;;2.17;;
35971;SDS011;22052;0.000;0.000;2023-06-26T13:59:37;8.20;;;2.40;;
35971;SDS011;22052;0.000;0.000;2023-06-26T14:02:04;6.93;;;2.10;;
35971;SDS011;22052;0.000;0.000;2023-06-26T14:04:31;7.22;;;2.30;;
35971;SDS011;22052;0.000;0.000;2023-06-26T14:06:58;9.20;;;2.80;;
35971;SDS011;22052;0.000;0.000;2023-06-26T14:09:24;9.30;;;2.50;;
35971;SDS011;22052;0.000;0.000;2023-06-26T14:11:50;6.35;;;2.20;;
35971;SDS011;22052;0.000;0.000;2023-06-26T14:14:16;5.65;;;2.30;;
35971;SDS011;22052;0.000;0.000;2023-06-26T14:16:42;10.30;;;2.72;;
35971;SDS011;22052;0.000;0.000;2023-06-26T14:19:09;7.20;;;2.25;;
35971;SDS011;22052;0.000;0.000;2023-06-26T14:21:40;5.45;;;2.50;;
35971;SDS011;22052;0.000;0.000;2023-06-26T14:24:06;8.82;;;2.30;;
35971;SDS011;22052;0.000;0.000;2023-06-26T14:26:32;9.20;;;2.38;;
35971;SDS011;22052;0.000;0.000;2023-06-26T14:28:59;7.72;;;2.50;;
35971;SDS011;22052;0.000;0.000;2023-06-26T14:31:25;9.73;;;2.30;;
35971;SDS011;22052;0.000;0.000;2023-06-26T14:33:51;6.00;;;2.40;;
35971;SDS011;22052;0.000;0.000;2023-06-26T14:36:17;12.73;;;2.42;;
35971;SDS011;22052;0.000;0.000;2023-06-26T14:38:44;6.78;;;2.28;;
35971;SDS011;22052;0.000;0.000;2023-06-26T14:41:11;12.82;;;2.75;;
35971;SDS011;22052;0.000;0.000;2023-06-26T14:43:37;9.00;;;2.10;;
35971;SDS011;22052;0.000;0.000;2023-06-26T14:46:04;4.88;;;2.05;;
35971;SDS011;22052;0.000;0.000;2023-06-26T14:48:30;10.73;;;2.88;;
35971;SDS011;22052;0.000;0.000;2023-06-26T14:50:56;7.85;;;2.45;;
35971;SDS011;22052;0.000;0.000;2023-06-26T14:53:22;5.90;;;2.40;;
35971;SDS011;22052;0.000;0.000;2023-06-26T14:55:49;8.75;;;2.58;;
35971;SDS011;22052;0.000;0.000;2023-06-26T14:58:15;8.10;;;2.15;;
35971;SDS011;22052;0.000;0.000;2023-06-26T15:00:41;7.78;;;2.53;;
35971;SDS011;22052;0.000;0.000;2023-06-26T15:03:08;7.22;;;2.40;;
35971;SDS011;22052;0.000;0.000;2023-06-26T15:05:35;9.43;;;2.45;;
35971;SDS011;22052;0.000;0.000;2023-06-26T15:08:01;9.20;;;2.22;;
35971;SDS011;22052;0.000;0.000;2023-06-26T15:10:27;13.05;;;2.20;;
35971;SDS011;22052;0.000;0.000;2023-06-26T15:12:53;6.53;;;2.58;;
35971;SDS011;22052;0.000;0.000;2023-06-26T15:15:19;7.82;;;2.40;;
35971;SDS011;22052;0.000;0.000;2023-06-26T15:17:47;9.55;;;2.33;;
35971;SDS011;22052;0.000;0.000;2023-06-26T15:20:13;7.45;;;2.63;;
35971;SDS011;22052;0.000;0.000;2023-06-26T15:22:39;6.00;;;2.42;;